createdAt,value
2022-10-28T00:00:30.899Z,13.27
2022-10-28T00:03:19.089Z,14.35
2022-10-28T00:06:09.477Z,15.43
2022-10-28T00:08:58.064Z,17.77
2022-10-28T00:11:46.018Z,17.23
2022-10-28T00:14:33.984Z,17.33
2022-10-28T00:17:21.907Z,16.63
2022-10-28T00:20:10.187Z,15.43
2022-10-28T00:22:57.866Z,15.85
2022-10-28T00:25:45.821Z,16.02
2022-10-28T00:28:33.672Z,17.23
2022-10-28T00:31:23.719Z,18.27
2022-10-28T00:34:21.640Z,15.18
2022-10-28T00:37:09.370Z,15.57
2022-10-28T00:39:57.136Z,16.35
2022-10-28T00:42:44.946Z,15.55
2022-10-28T00:45:32.825Z,16.27
2022-10-28T00:48:20.556Z,17.13
2022-10-28T00:51:10.124Z,15.75
2022-10-28T00:53:58.512Z,16.00
2022-10-28T00:56:50.696Z,17.35
2022-10-28T00:59:42.307Z,17.13
2022-10-28T01:02:30.769Z,16.90
2022-10-28T01:05:25.626Z,15.20
2022-10-28T01:08:13.931Z,14.90
2022-10-28T01:11:23.210Z,15.70
2022-10-28T01:14:34.630Z,16.35
2022-10-28T01:17:48.784Z,16.30
2022-10-28T01:21:13.928Z,14.82
2022-10-28T01:27:32.331Z,14.20
2022-10-28T01:30:25.897Z,15.77
2022-10-28T01:33:29.020Z,15.30
2022-10-28T01:36:29.740Z,16.52
2022-10-28T01:39:33.612Z,15.45
2022-10-28T01:42:33.194Z,15.68
2022-10-28T01:45:24.129Z,15.93
2022-10-28T01:48:23.205Z,16.15
2022-10-28T01:51:30.173Z,15.57
2022-10-28T01:54:23.311Z,15.80
2022-10-28T01:57:13.769Z,16.23
2022-10-28T02:00:03.625Z,13.95
2022-10-28T02:02:52.062Z,13.88
2022-10-28T02:05:46.464Z,16.58
2022-10-28T02:09:08.275Z,15.05
2022-10-28T02:12:28.856Z,16.40
2022-10-28T02:15:35.105Z,14.18
2022-10-28T02:18:35.564Z,15.77
2022-10-28T02:21:42.157Z,16.05
2022-10-28T02:24:39.224Z,17.42
2022-10-28T02:27:33.760Z,16.30
2022-10-28T02:30:44.597Z,15.93
2022-10-28T02:33:36.207Z,16.17
2022-10-28T02:36:26.003Z,13.85
2022-10-28T02:39:16.572Z,14.55
2022-10-28T02:42:19.963Z,15.50
2022-10-28T02:45:13.635Z,15.57
2022-10-28T02:48:22.518Z,15.10
2022-10-28T02:51:28.649Z,16.50
2022-10-28T02:54:30.761Z,16.50
2022-10-28T02:57:26.516Z,17.17
2022-10-28T03:00:21.052Z,15.73
2022-10-28T03:03:08.953Z,16.08
2022-10-28T03:05:56.948Z,17.05
2022-10-28T03:08:44.914Z,16.95
2022-10-28T03:11:32.707Z,14.20
2022-10-28T03:14:20.552Z,15.95
2022-10-28T03:17:08.828Z,15.65
2022-10-28T03:19:56.747Z,17.65
2022-10-28T03:22:44.864Z,15.13
2022-10-28T03:25:32.882Z,16.02
2022-10-28T03:28:20.637Z,17.42
2022-10-28T03:31:08.728Z,16.15
2022-10-28T03:34:01.729Z,17.33
2022-10-28T03:36:49.581Z,17.80
2022-10-28T03:39:37.576Z,16.08
2022-10-28T03:42:30.947Z,16.50
2022-10-28T03:45:18.860Z,16.30
2022-10-28T03:48:07.056Z,15.38
2022-10-28T03:50:55.898Z,16.75
2022-10-28T03:53:43.945Z,17.80
2022-10-28T03:56:37.929Z,17.33
2022-10-28T03:59:28.394Z,18.00
2022-10-28T04:02:18.808Z,19.45
2022-10-28T04:05:07.356Z,18.92
2022-10-28T04:07:59.805Z,19.35
2022-10-28T04:10:48.443Z,16.75
2022-10-28T04:13:36.804Z,18.20
2022-10-28T04:16:25.426Z,19.75
2022-10-28T04:19:15.986Z,20.95
2022-10-28T04:22:06.266Z,22.02
2022-10-28T04:24:59.582Z,19.70
2022-10-28T04:28:02.121Z,20.20
2022-10-28T04:30:57.092Z,17.20
2022-10-28T04:33:44.902Z,17.55
2022-10-28T04:36:32.628Z,16.95
2022-10-28T04:39:20.480Z,19.60
2022-10-28T04:42:08.441Z,17.73
2022-10-28T04:44:56.162Z,18.63
2022-10-28T04:47:47.937Z,18.00
2022-10-28T04:53:43.172Z,18.40
2022-10-28T04:56:33.727Z,18.92
2022-10-28T04:59:24.472Z,18.33
2022-10-28T05:02:12.675Z,16.65
2022-10-28T05:05:06.757Z,18.92
2022-10-28T05:07:57.997Z,17.05
2022-10-28T05:10:51.968Z,18.75
2022-10-28T05:19:10.677Z,16.88
2022-10-28T05:22:23.181Z,17.60
2022-10-28T05:29:23.276Z,17.55
2022-10-28T05:36:29.012Z,20.05
2022-10-28T05:42:05.993Z,17.27
2022-10-28T05:44:58.043Z,18.20
2022-10-28T05:47:59.201Z,16.63
2022-10-28T05:50:47.750Z,17.58
2022-10-28T16:36:54.728Z,7.57
2022-10-28T16:43:22.808Z,7.32
2022-10-28T16:46:19.342Z,6.80
2022-10-28T16:49:21.555Z,7.20
2022-10-28T16:52:55.986Z,7.50
2022-10-28T16:55:55.915Z,6.43
2022-10-28T16:58:59.994Z,6.95
2022-10-28T17:04:56.744Z,7.75
2022-10-28T17:07:44.685Z,7.43
2022-10-28T17:13:27.456Z,7.20
2022-10-28T17:16:15.446Z,6.55
2022-10-28T17:19:06.203Z,7.10
2022-10-28T17:21:56.570Z,7.18
2022-10-28T17:24:57.567Z,6.82
2022-10-28T17:27:49.227Z,6.97
2022-10-28T17:33:40.065Z,6.43
2022-10-28T17:36:32.197Z,6.28
2022-10-28T17:39:25.702Z,6.72
2022-10-28T17:42:14.326Z,6.47
2022-10-28T17:45:17.991Z,6.78
2022-10-28T17:48:20.289Z,6.53
2022-10-28T17:51:22.456Z,5.68
2022-10-28T17:57:46.888Z,6.00
2022-10-28T18:04:27.877Z,5.82
2022-10-28T18:06:54.914Z,7.10
2022-10-28T18:09:45.221Z,6.95
2022-10-28T18:12:33.660Z,6.75
2022-10-28T18:15:24.482Z,7.15
2022-10-28T18:18:12.371Z,6.07
2022-10-28T18:21:18.751Z,7.90
2022-10-28T18:24:07.695Z,7.15
2022-10-28T18:27:05.152Z,7.05
2022-10-28T18:29:55.357Z,6.28
2022-10-28T18:32:54.713Z,5.97
2022-10-28T18:35:42.991Z,7.28
2022-10-28T18:38:45.320Z,6.97
2022-10-28T18:41:48.783Z,6.05
2022-10-28T18:45:47.709Z,5.50
2022-10-28T18:48:39.627Z,6.07
2022-10-28T18:54:35.539Z,5.50
2022-10-28T19:19:14.283Z,6.15
2022-10-28T19:22:22.038Z,5.70
2022-10-28T19:25:10.457Z,6.95
2022-10-28T19:28:01.330Z,6.18
2022-10-28T19:37:36.461Z,7.00
2022-10-28T19:44:16.486Z,7.03
2022-10-28T19:47:09.407Z,6.88
2022-10-28T20:00:57.154Z,8.07
2022-10-28T20:14:08.865Z,7.03
2022-10-28T20:21:20.448Z,8.13
2022-10-28T20:35:09.005Z,8.20
2022-10-28T20:42:17.643Z,7.68
2022-10-28T20:49:33.988Z,7.43
2022-10-28T20:52:26.681Z,8.52
2022-10-28T20:55:38.346Z,7.78
2022-10-28T20:59:25.222Z,8.75
2022-10-28T21:02:28.311Z,8.23
2022-10-28T21:05:28.694Z,8.95
2022-10-28T21:09:10.288Z,8.77
2022-10-28T21:15:46.627Z,8.02
2022-10-28T21:29:01.065Z,8.23
2022-10-28T21:31:49.153Z,8.10
2022-10-28T21:34:46.174Z,8.60
2022-10-28T21:40:42.035Z,8.23
2022-10-28T21:46:44.902Z,8.73
2022-10-28T21:49:42.769Z,8.52
2022-10-28T21:53:06.048Z,6.82
2022-10-28T21:56:32.476Z,7.88
2022-10-28T21:59:20.075Z,7.70
2022-10-28T22:02:12.602Z,7.97
2022-10-28T22:05:01.175Z,8.10
2022-10-28T22:08:12.587Z,9.10
2022-10-28T22:16:37.462Z,8.95
2022-10-28T22:19:25.564Z,8.02
2022-10-28T22:22:15.755Z,8.73
2022-10-28T22:25:14.047Z,8.18
2022-10-28T22:28:01.870Z,8.00
2022-10-28T22:31:53.211Z,8.38
2022-10-28T22:44:14.272Z,8.98
2022-10-28T22:47:34.943Z,8.10
2022-10-28T22:50:24.341Z,8.63
2022-10-28T22:53:12.086Z,9.55
2022-10-28T22:55:59.887Z,8.43
2022-10-28T22:58:48.522Z,8.65
2022-10-28T23:01:36.564Z,9.82
2022-10-28T23:04:24.283Z,9.13
2022-10-28T23:07:11.957Z,9.88
2022-10-28T23:10:00.708Z,9.13
2022-10-28T23:12:48.338Z,10.02
2022-10-28T23:15:36.101Z,11.00
2022-10-28T23:18:28.218Z,10.45
2022-10-28T23:21:18.824Z,9.98
2022-10-28T23:24:06.727Z,11.40
2022-10-28T23:26:54.271Z,10.73
2022-10-28T23:29:42.046Z,10.23
2022-10-28T23:32:30.458Z,10.50
2022-10-28T23:35:18.192Z,11.55
2022-10-28T23:38:05.865Z,10.65
2022-10-28T23:41:02.267Z,11.23
2022-10-28T23:43:53.664Z,12.40
2022-10-28T23:46:44.330Z,11.65
2022-10-28T23:49:31.996Z,11.32
2022-10-28T23:52:19.862Z,12.35
2022-10-28T23:55:07.977Z,12.68
2022-10-28T23:57:58.866Z,12.48
